KPHT/PHT METAR and TAF weather

Enter ICAO airport designator
Station Type Date Time Source
KPHT METAR 2019/12/07 17:35 UTC NOAA

KPHT 071735Z AUTO 03004KT 10SM OVC034 09/05 A3033 RMK A01


Station Type Date Time Source
KPHT Decoded METAR 2019/12/07 17:35 UTC NOAA

Station name not available
Dec 07, 2019 - 12:35 PM EST / 2019.12.07 1735 UTC
Wind: from the NNE (030 degrees) at 5 MPH (4 KT):0
Visibility: 10 mile(s):0
Sky conditions: overcast
Temperature: 48 F (9 C)
Dew Point: 41 F (5 C)
Relative Humidity: 75%
Pressure (altimeter): 30.33 in. Hg (1027 hPa)
ob: KPHT 071735Z AUTO 03004KT 10SM OVC034 09/05 A3033 RMK A01
cycle: 17

Station Type Date Time Source
KPHT TAF UTC NOAA

Error!

Example: see airport list